Time;durP1;ratioP1;P1;durP2;ratioP2;P2;SDS_P1;SDS_P2;PMS_P1;PMS_P2;Temp;Humidity;BMP_temperature;BMP_pressure;BME280_temperature;BME280_humidity;BME280_pressure;Samples;Min_cycle;Max_cycle;Signal;HPM_P1;HPM_P2
2023/07/25 00:14:36;;;;;;;41.40;36.88;;;11.80;79.30;;;;;;5202821;23;20134;-88
2023/07/25 00:17:05;;;;;;;59.15;54.47;;;11.90;79.00;;;;;;4921841;28;20133;-89
2023/07/25 00:19:31;;;;;;;83.65;77.18;;;11.90;79.00;;;;;;4916650;29;20092;-90
2023/07/25 00:44:03;;;;;;;20.50;17.85;;;11.90;79.00;;;;;;5251612;23;20615;-89
2023/07/25 00:46:29;;;;;;;90.45;84.25;;;11.90;79.00;;;;;;4897678;29;20044;-89
2023/07/25 00:48:55;;;;;;;115.28;107.03;;;11.90;79.00;;;;;;4897915;29;20054;-88
2023/07/25 00:51:21;;;;;;;80.53;74.60;;;12.00;79.10;;;;;;4911176;28;20054;-89
2023/07/25 00:53:47;;;;;;;130.02;121.43;;;11.90;79.10;;;;;;4920439;29;20055;-89
2023/07/25 00:56:13;;;;;;;126.18;117.57;;;12.00;79.20;;;;;;4903476;29;20414;-89
2023/07/25 00:58:39;;;;;;;134.73;125.63;;;11.90;79.30;;;;;;4918884;29;20052;-89
2023/07/25 01:01:07;;;;;;;123.88;115.13;;;12.00;79.30;;;;;;4915791;29;20068;-89
2023/07/25 01:03:36;;;;;;;117.75;109.30;;;12.00;79.40;;;;;;4917498;29;20075;-89
2023/07/25 01:06:04;;;;;;;126.88;118.13;;;12.00;79.40;;;;;;4918580;29;20055;-89
2023/07/25 01:08:31;;;;;;;84.57;78.68;;;11.90;79.40;;;;;;4906732;29;20056;-90
2023/07/25 01:10:57;;;;;;;190.68;177.98;;;11.90;79.30;;;;;;4938030;29;20043;-89
2023/07/25 01:13:24;;;;;;;125.15;116.20;;;11.90;79.60;;;;;;4898603;29;20044;-90
2023/07/25 01:15:51;;;;;;;142.40;133.05;;;11.90;79.60;;;;;;4911608;29;20102;-89
2023/07/25 01:18:19;;;;;;;109.47;101.93;;;11.90;79.70;;;;;;4905796;29;20067;-90
2023/07/25 01:20:47;;;;;;;124.00;115.05;;;11.90;79.70;;;;;;4927892;29;20058;-87
2023/07/25 01:23:13;;;;;;;196.77;183.40;;;11.90;79.70;;;;;;4909759;29;20081;-88
2023/07/25 01:25:39;;;;;;;164.30;153.32;;;12.00;80.00;;;;;;4905528;29;20052;-88
2023/07/25 01:28:05;;;;;;;124.80;115.75;;;12.00;79.90;;;;;;4895084;29;20123;-90
2023/07/25 01:30:31;;;;;;;129.95;120.68;;;12.10;79.90;;;;;;4921937;29;20047;-89
2023/07/25 01:32:57;;;;;;;175.68;164.07;;;12.20;79.90;;;;;;4917007;29;20548;-89
2023/07/25 01:35:23;;;;;;;167.00;155.75;;;12.20;80.00;;;;;;4907763;29;20486;-89
2023/07/25 01:37:49;;;;;;;153.00;142.30;;;12.20;80.00;;;;;;4880734;29;20087;-89
2023/07/25 01:40:15;;;;;;;142.93;133.82;;;12.20;80.10;;;;;;4918468;29;20486;-89
2023/07/25 01:42:40;;;;;;;176.23;163.77;;;12.20;80.10;;;;;;4915976;29;20048;-89
2023/07/25 01:45:07;;;;;;;188.38;176.60;;;12.30;80.20;;;;;;4907542;29;20055;-89
2023/07/25 01:47:33;;;;;;;192.30;179.68;;;12.30;80.20;;;;;;4892449;29;20047;-89
2023/07/25 01:49:59;;;;;;;215.52;201.07;;;12.30;80.30;;;;;;4921728;29;20084;-89
2023/07/25 01:52:25;;;;;;;176.50;164.32;;;12.30;80.50;;;;;;4928421;28;20065;-89
2023/07/25 01:54:52;;;;;;;196.18;183.43;;;12.30;80.50;;;;;;4926651;29;20043;-90
2023/07/25 01:57:18;;;;;;;201.63;187.80;;;12.30;80.40;;;;;;4910286;29;20056;-90
2023/07/25 01:59:44;;;;;;;225.32;210.82;;;12.30;80.40;;;;;;4905597;29;20054;-90
2023/07/25 02:02:10;;;;;;;204.52;191.50;;;12.30;80.50;;;;;;4915846;28;20158;-89
2023/07/25 02:04:35;;;;;;;167.60;156.57;;;12.30;80.50;;;;;;4916279;29;20182;-90
2023/07/25 02:07:01;;;;;;;181.60;170.00;;;12.30;80.50;;;;;;4909562;29;20055;-89
2023/07/25 02:09:27;;;;;;;226.50;211.02;;;12.30;80.50;;;;;;4932169;29;20070;-89
2023/07/25 02:11:53;;;;;;;209.48;195.60;;;12.30;80.60;;;;;;4901860;29;20384;-89
2023/07/25 02:14:19;;;;;;;182.45;169.75;;;12.30;80.60;;;;;;4919593;29;20050;-89
2023/07/25 02:16:45;;;;;;;211.48;197.07;;;12.30;80.60;;;;;;4915190;29;20042;-89
2023/07/25 02:19:11;;;;;;;189.25;176.32;;;12.30;80.60;;;;;;4909811;29;20043;-89
2023/07/25 02:21:36;;;;;;;179.73;168.20;;;12.30;80.70;;;;;;4928357;29;20055;-89
2023/07/25 02:24:02;;;;;;;187.93;175.15;;;12.30;80.70;;;;;;4912718;29;20063;-89
2023/07/25 02:26:28;;;;;;;180.13;168.18;;;12.30;80.70;;;;;;4925140;29;20116;-88
2023/07/25 02:28:54;;;;;;;173.68;162.82;;;12.30;80.70;;;;;;4900501;29;20138;-89
2023/07/25 02:31:20;;;;;;;194.35;181.40;;;12.30;80.70;;;;;;4920575;29;20071;-88
2023/07/25 02:33:45;;;;;;;181.25;169.70;;;12.30;80.80;;;;;;4934806;28;20043;-88
2023/07/25 02:36:11;;;;;;;183.82;171.82;;;12.30;80.80;;;;;;4935477;29;20464;-89
2023/07/25 02:38:37;;;;;;;168.35;157.65;;;12.30;80.80;;;;;;4915259;29;20043;-89
2023/07/25 02:41:03;;;;;;;182.52;170.95;;;12.30;80.70;;;;;;4904240;28;20047;-89
2023/07/25 02:43:29;;;;;;;216.35;201.98;;;12.30;80.80;;;;;;4917304;29;20052;-89
2023/07/25 02:45:55;;;;;;;212.75;199.18;;;12.30;80.70;;;;;;4931773;29;20059;-89
2023/07/25 02:48:20;;;;;;;177.55;165.82;;;12.40;80.80;;;;;;4909125;29;20138;-89
2023/07/25 02:50:46;;;;;;;201.98;189.65;;;12.40;80.80;;;;;;4915116;29;20043;-90
2023/07/25 02:53:12;;;;;;;203.48;190.95;;;12.40;80.80;;;;;;4910254;29;20059;-89
2023/07/25 02:55:38;;;;;;;193.73;181.02;;;12.50;80.80;;;;;;4930712;29;20059;-89
2023/07/25 02:58:04;;;;;;;207.15;193.07;;;12.50;80.80;;;;;;4909320;29;20047;-89
2023/07/25 03:00:30;;;;;;;213.20;198.80;;;12.50;80.90;;;;;;4917419;29;20114;-89
2023/07/25 03:02:56;;;;;;;140.82;131.20;;;12.50;80.70;;;;;;4913669;29;20106;-89
2023/07/25 03:05:21;;;;;;;176.05;164.50;;;12.50;80.80;;;;;;4917140;29;20055;-90
2023/07/25 03:07:48;;;;;;;215.85;201.73;;;12.70;80.70;;;;;;4908616;28;20051;-89
2023/07/25 03:10:13;;;;;;;253.18;236.75;;;12.70;80.80;;;;;;4935881;29;20043;-89
2023/07/25 03:12:39;;;;;;;237.15;222.50;;;12.70;80.90;;;;;;4918981;29;20429;-91
2023/07/25 03:15:05;;;;;;;249.93;234.38;;;12.80;80.80;;;;;;4917388;29;20125;-90
2023/07/25 03:17:32;;;;;;;237.60;222.05;;;12.80;80.80;;;;;;4902372;29;20472;-90
2023/07/25 03:19:57;;;;;;;246.75;231.75;;;12.80;80.80;;;;;;4919765;29;20046;-90
2023/07/25 03:22:23;;;;;;;266.60;250.05;;;12.90;80.70;;;;;;4920499;29;20584;-90
2023/07/25 03:24:50;;;;;;;255.40;239.80;;;12.90;80.80;;;;;;4903410;29;20403;-89
2023/07/25 03:27:16;;;;;;;238.98;223.63;;;12.90;80.90;;;;;;4893405;29;20558;-89
2023/07/25 03:29:42;;;;;;;276.67;259.08;;;12.90;80.80;;;;;;4916633;29;20055;-90
2023/07/25 03:32:11;;;;;;;269.35;251.18;;;12.90;80.90;;;;;;4904455;29;20131;-89
2023/07/25 03:34:37;;;;;;;268.63;250.93;;;12.80;81.00;;;;;;4898475;29;20138;-88
2023/07/25 03:37:03;;;;;;;259.60;243.30;;;12.80;80.80;;;;;;4929744;29;20043;-89
2023/07/25 03:39:29;;;;;;;237.13;222.32;;;12.70;80.80;;;;;;4900814;29;20051;-89
2023/07/25 03:41:55;;;;;;;256.42;239.70;;;12.70;80.80;;;;;;4917422;29;20055;-88
2023/07/25 03:44:20;;;;;;;263.77;247.05;;;12.50;80.80;;;;;;4921962;29;20509;-88
2023/07/25 03:46:47;;;;;;;230.35;215.63;;;12.50;80.80;;;;;;4920008;29;20055;-89
2023/07/25 03:49:13;;;;;;;208.60;195.32;;;12.50;80.90;;;;;;4883357;29;20092;-89
2023/07/25 03:51:39;;;;;;;259.85;242.98;;;12.50;80.90;;;;;;4936568;28;20155;-89
2023/07/25 03:54:06;;;;;;;235.93;220.75;;;12.50;81.00;;;;;;4894864;29;20035;-88
2023/07/25 03:56:32;;;;;;;247.38;231.25;;;12.50;81.00;;;;;;4911510;29;20048;-90
2023/07/25 03:58:59;;;;;;;243.25;227.02;;;12.40;81.10;;;;;;4923913;29;20510;-87
2023/07/25 04:01:25;;;;;;;220.93;206.48;;;12.40;81.00;;;;;;4940934;29;20103;-87
2023/07/25 04:03:50;;;;;;;210.15;196.63;;;12.30;80.90;;;;;;4934853;29;20063;-89
2023/07/25 04:06:18;;;;;;;202.40;189.30;;;12.30;80.90;;;;;;4935625;29;20091;-86
2023/07/25 04:08:44;;;;;;;216.50;202.05;;;12.30;80.70;;;;;;4933078;29;20405;-87
2023/07/25 04:11:10;;;;;;;199.38;185.93;;;12.30;80.70;;;;;;4916433;29;20051;-87
2023/07/25 04:13:35;;;;;;;203.48;190.20;;;12.30;80.50;;;;;;4936165;28;20078;-87
2023/07/25 04:16:01;;;;;;;169.40;158.13;;;12.30;80.40;;;;;;4934293;29;20070;-85
2023/07/25 04:18:27;;;;;;;156.70;146.57;;;12.20;80.10;;;;;;4926333;29;20043;-88
2023/07/25 04:20:53;;;;;;;153.15;143.38;;;12.30;80.10;;;;;;4894231;29;20047;-87
2023/07/25 04:23:21;;;;;;;167.13;155.93;;;12.20;80.00;;;;;;4920696;29;20118;-87
2023/07/25 04:25:48;;;;;;;160.27;150.15;;;12.20;79.70;;;;;;4913013;29;20047;-86
2023/07/25 04:28:14;;;;;;;135.18;126.97;;;12.20;79.60;;;;;;4929562;29;20544;-86
2023/07/25 04:30:40;;;;;;;164.20;153.30;;;12.10;79.40;;;;;;4919844;29;20049;-87
2023/07/25 04:33:05;;;;;;;138.07;128.82;;;12.10;79.20;;;;;;4926133;28;20078;-87
2023/07/25 04:35:32;;;;;;;124.50;116.65;;;12.10;79.10;;;;;;4921203;29;20051;-86
2023/07/25 04:37:57;;;;;;;149.52;139.73;;;12.10;79.00;;;;;;4906519;29;20835;-86
2023/07/25 04:40:25;;;;;;;184.35;172.00;;;12.10;78.90;;;;;;4906271;29;20047;-87
2023/07/25 04:42:51;;;;;;;139.77;130.02;;;12.10;78.90;;;;;;4932759;28;20490;-87
2023/07/25 04:45:17;;;;;;;154.25;143.70;;;12.10;78.70;;;;;;4924878;29;20451;-86
2023/07/25 04:47:43;;;;;;;135.15;126.60;;;12.10;78.60;;;;;;4936393;28;20074;-86
2023/07/25 04:50:10;;;;;;;186.35;174.40;;;12.20;78.50;;;;;;4942643;28;20051;-86
2023/07/25 04:52:36;;;;;;;114.82;107.45;;;12.20;78.50;;;;;;4943751;28;20075;-87
2023/07/25 04:55:02;;;;;;;154.00;143.73;;;12.20;78.40;;;;;;4950056;28;20078;-86
2023/07/25 04:57:28;;;;;;;132.73;123.80;;;12.20;78.40;;;;;;4927569;29;20047;-87
2023/07/25 04:59:54;;;;;;;136.98;127.82;;;12.20;78.40;;;;;;4927536;29;20098;-87
2023/07/25 05:02:20;;;;;;;153.02;143.25;;;12.20;78.40;;;;;;4935538;28;20043;-87
2023/07/25 05:04:46;;;;;;;153.75;143.18;;;12.20;78.40;;;;;;4945533;29;20048;-88
2023/07/25 05:07:13;;;;;;;123.22;115.75;;;12.20;78.40;;;;;;4932424;28;20078;-87
2023/07/25 05:09:39;;;;;;;122.72;114.75;;;12.20;78.40;;;;;;4947896;28;20058;-87
2023/07/25 05:12:06;;;;;;;148.82;139.00;;;12.20;78.50;;;;;;4935082;28;20043;-87
2023/07/25 05:14:32;;;;;;;169.77;158.50;;;12.20;78.50;;;;;;4948290;28;20086;-87
2023/07/25 05:16:58;;;;;;;150.82;141.30;;;12.20;78.50;;;;;;4929515;29;20082;-88
2023/07/25 05:19:24;;;;;;;149.80;140.63;;;12.30;78.40;;;;;;4927371;29;20059;-87
2023/07/25 05:21:49;;;;;;;152.60;142.68;;;12.30;78.40;;;;;;4927922;29;20047;-87
2023/07/25 05:24:15;;;;;;;208.45;195.35;;;12.40;78.40;;;;;;4924572;29;20082;-86
2023/07/25 05:26:41;;;;;;;194.35;182.30;;;12.50;78.50;;;;;;4922658;29;20039;-87
2023/07/25 05:29:07;;;;;;;214.73;200.82;;;12.50;78.40;;;;;;4935374;29;20086;-87
2023/07/25 05:31:33;;;;;;;204.30;190.80;;;12.70;78.50;;;;;;4945166;28;20094;-88
2023/07/25 05:33:59;;;;;;;276.13;259.27;;;12.90;78.20;;;;;;4935079;28;20043;-87
2023/07/25 05:36:25;;;;;;;252.15;237.40;;;13.00;77.60;;;;;;4926763;29;20047;-86
2023/07/25 05:38:51;;;;;;;300.25;281.52;;;13.20;77.50;;;;;;4918420;29;20126;-86
2023/07/25 05:41:17;;;;;;;241.20;225.82;;;13.30;76.80;;;;;;4936216;28;20086;-88
2023/07/25 05:43:43;;;;;;;243.13;228.07;;;13.40;76.70;;;;;;4957539;28;20536;-86
2023/07/25 05:46:09;;;;;;;311.27;291.73;;;13.40;76.40;;;;;;4947194;29;20056;-88
2023/07/25 05:48:34;;;;;;;274.25;256.83;;;13.40;76.10;;;;;;4900037;29;20052;-86
2023/07/25 05:51:00;;;;;;;264.15;248.32;;;13.30;76.40;;;;;;4931271;28;20050;-86
2023/07/25 05:53:26;;;;;;;245.38;230.05;;;13.30;76.50;;;;;;4920948;29;20058;-87
2023/07/25 05:55:52;;;;;;;262.98;246.82;;;13.30;76.40;;;;;;4935094;29;20075;-87
2023/07/25 05:58:19;;;;;;;300.70;281.63;;;13.40;76.60;;;;;;4916844;29;20517;-88
2023/07/25 06:00:46;;;;;;;349.02;326.13;;;13.50;76.50;;;;;;4932542;29;20607;-87
2023/07/25 06:03:14;;;;;;;291.05;273.52;;;13.50;76.20;;;;;;4935623;29;20054;-87
2023/07/25 06:05:40;;;;;;;266.33;250.45;;;13.50;76.00;;;;;;4933526;29;20114;-87
2023/07/25 06:08:07;;;;;;;260.67;244.73;;;13.60;75.70;;;;;;4929619;28;20057;-88
2023/07/25 06:10:34;;;;;;;309.33;289.63;;;13.70;75.80;;;;;;4952540;29;20047;-87
2023/07/25 06:13:00;;;;;;;321.73;301.75;;;13.80;75.50;;;;;;4935164;29;20043;-88
2023/07/25 06:15:28;;;;;;;290.20;272.83;;;13.90;75.10;;;;;;4934134;29;20122;-88
2023/07/25 06:17:54;;;;;;;294.88;276.67;;;14.00;75.30;;;;;;4943812;28;20070;-88
2023/07/25 06:20:20;;;;;;;298.33;280.40;;;14.10;75.00;;;;;;4947488;29;20043;-87
2023/07/25 06:22:47;;;;;;;384.92;360.08;;;14.10;74.70;;;;;;4962704;28;20108;-86
2023/07/25 06:25:15;;;;;;;411.75;383.75;;;14.20;74.20;;;;;;4935507;29;20061;-88
2023/07/25 06:27:41;;;;;;;317.88;298.75;;;14.30;74.10;;;;;;4925555;29;20051;-88
2023/07/25 06:30:07;;;;;;;361.50;337.58;;;14.30;73.40;;;;;;4935399;29;20565;-90
2023/07/25 06:32:34;;;;;;;321.42;302.15;;;14.50;72.90;;;;;;4930385;29;20039;-87
2023/07/25 06:35:08;;;;;;;277.33;261.08;;;14.60;73.20;;;;;;4951592;29;20062;-89
2023/07/25 06:37:35;;;;;;;309.05;290.77;;;14.60;72.20;;;;;;4961536;28;20161;-90
2023/07/25 06:40:01;;;;;;;326.13;306.48;;;14.70;72.20;;;;;;4936101;29;20050;-88
2023/07/25 06:42:28;;;;;;;292.38;274.48;;;14.70;71.80;;;;;;4950532;28;20047;-89
2023/07/25 06:45:00;;;;;;;322.17;302.77;;;14.90;72.20;;;;;;4952062;28;20391;-92
2023/07/25 06:47:28;;;;;;;317.05;297.42;;;15.00;71.40;;;;;;4943069;28;20517;-89
2023/07/25 06:49:54;;;;;;;332.60;312.17;;;15.00;70.90;;;;;;4950949;29;20039;-90
2023/07/25 06:52:20;;;;;;;286.58;270.15;;;15.00;70.60;;;;;;4947641;28;20469;-88
2023/07/25 06:54:45;;;;;;;401.05;375.25;;;15.00;70.30;;;;;;4934573;29;20538;-87
2023/07/25 06:57:11;;;;;;;395.38;369.48;;;15.00;69.50;;;;;;4927334;28;20035;-89
2023/07/25 06:59:37;;;;;;;377.38;354.85;;;15.00;69.00;;;;;;4919593;29;20043;-89
2023/07/25 07:02:03;;;;;;;283.77;267.42;;;15.00;69.50;;;;;;4950436;28;20043;-88
2023/07/25 07:04:30;;;;;;;345.50;323.50;;;15.00;68.90;;;;;;4920237;28;20047;-88
2023/07/25 07:06:56;;;;;;;275.73;259.65;;;15.00;69.00;;;;;;4942470;29;20062;-88
2023/07/25 07:09:22;;;;;;;416.67;389.75;;;15.00;69.10;;;;;;4938036;29;20047;-87
2023/07/25 07:11:47;;;;;;;284.65;267.75;;;15.00;68.40;;;;;;4967072;28;20035;-88
2023/07/25 07:14:13;;;;;;;432.70;403.55;;;15.00;68.40;;;;;;4934347;29;20047;-89
2023/07/25 07:16:39;;;;;;;258.77;243.52;;;15.00;68.00;;;;;;4943647;29;20039;-89
2023/07/25 07:19:11;;;;;;;368.33;345.50;;;15.00;68.00;;;;;;4915256;29;20438;-90
2023/07/25 07:21:36;;;;;;;281.85;265.08;;;15.10;68.50;;;;;;4914690;29;20047;-88
2023/07/25 07:24:02;;;;;;;265.52;250.15;;;15.20;68.90;;;;;;4909825;28;20119;-88
2023/07/25 07:26:28;;;;;;;267.17;251.25;;;15.40;69.00;;;;;;4919126;29;20075;-89
2023/07/25 07:28:54;;;;;;;269.98;254.13;;;15.50;68.10;;;;;;4919181;28;20082;-87
2023/07/25 07:31:23;;;;;;;394.30;369.27;;;15.50;67.40;;;;;;4929508;28;20122;-88
2023/07/25 07:33:52;;;;;;;323.10;303.75;;;15.50;67.30;;;;;;4926935;28;20051;-90
2023/07/25 07:36:18;;;;;;;362.52;339.33;;;15.40;67.80;;;;;;4933413;29;20055;-90
2023/07/25 07:38:44;;;;;;;250.60;236.02;;;15.30;67.20;;;;;;4921846;29;20065;-88
2023/07/25 07:41:09;;;;;;;265.50;250.10;;;15.30;67.80;;;;;;4935247;28;20498;-87
2023/07/25 07:43:35;;;;;;;388.17;363.90;;;15.30;68.10;;;;;;4941666;28;20064;-88
2023/07/25 07:46:04;;;;;;;351.70;330.48;;;15.30;67.50;;;;;;4926529;29;20054;-91
2023/07/25 07:48:30;;;;;;;249.40;234.70;;;15.50;68.00;;;;;;4927227;29;20209;-89
2023/07/25 07:51:02;;;;;;;365.15;341.73;;;15.50;67.80;;;;;;4928198;29;20138;-90
2023/07/25 07:53:28;;;;;;;264.05;248.70;;;15.60;67.30;;;;;;4944928;28;20088;-89
2023/07/25 07:55:54;;;;;;;330.98;311.13;;;15.60;67.50;;;;;;4947179;28;20051;-89
2023/07/25 07:58:20;;;;;;;349.70;328.92;;;15.50;67.50;;;;;;4951745;28;20081;-88
2023/07/25 08:00:46;;;;;;;257.90;242.43;;;15.50;67.60;;;;;;4949712;28;20087;-89
2023/07/25 08:03:11;;;;;;;409.60;382.75;;;15.60;67.10;;;;;;4944963;28;20042;-88
2023/07/25 08:05:37;;;;;;;256.25;241.23;;;15.60;66.60;;;;;;4947422;28;20103;-88
2023/07/25 08:08:03;;;;;;;255.20;240.50;;;15.60;67.10;;;;;;4943150;28;20062;-89
2023/07/25 08:10:32;;;;;;;355.73;333.67;;;15.70;67.10;;;;;;4951074;28;20052;-91
2023/07/25 08:12:58;;;;;;;410.13;384.73;;;15.80;67.30;;;;;;4944415;28;20395;-89
2023/07/25 08:15:24;;;;;;;281.70;265.10;;;15.90;67.30;;;;;;4927396;29;20135;-89
2023/07/25 08:17:50;;;;;;;378.33;355.63;;;15.90;66.70;;;;;;4929220;28;20066;-88
2023/07/25 08:20:15;;;;;;;375.73;353.08;;;15.80;66.20;;;;;;4933507;29;20047;-93
2023/07/25 08:22:43;;;;;;;256.13;241.20;;;16.00;66.70;;;;;;4938147;29;20079;-88
2023/07/25 08:25:11;;;;;;;281.42;264.33;;;16.00;66.50;;;;;;4929663;29;20047;-90
2023/07/25 08:27:37;;;;;;;379.10;355.60;;;16.00;66.70;;;;;;4940146;28;20055;-90
2023/07/25 08:30:04;;;;;;;248.52;233.85;;;16.00;66.50;;;;;;4948558;28;20102;-89
2023/07/25 08:32:29;;;;;;;375.85;352.95;;;16.10;66.40;;;;;;4939493;29;20603;-91
2023/07/25 08:34:55;;;;;;;354.25;333.38;;;16.10;66.10;;;;;;4950443;28;20146;-91
2023/07/25 08:37:25;;;;;;;438.30;407.52;;;16.20;66.20;;;;;;4919677;29;20397;-93
2023/07/25 08:39:53;;;;;;;356.92;335.55;;;16.40;65.90;;;;;;4945872;28;20095;-91
2023/07/25 08:42:31;;;;;;;264.30;248.63;;;16.40;65.70;;;;;;4933820;28;20046;-91
2023/07/25 08:44:59;;;;;;;364.75;343.38;;;16.50;65.80;;;;;;4901801;29;20183;-91
2023/07/25 08:47:39;;;;;;;262.33;246.95;;;16.60;65.30;;;;;;4906973;29;20044;-90
2023/07/25 08:50:11;;;;;;;306.25;287.75;;;16.60;64.80;;;;;;4901126;29;20043;-92
2023/07/25 08:52:39;;;;;;;405.75;380.33;;;16.60;65.30;;;;;;4916416;29;20055;-89
2023/07/25 08:55:06;;;;;;;267.88;251.07;;;16.60;65.50;;;;;;4937227;29;20063;-90
2023/07/25 08:57:35;;;;;;;249.55;235.00;;;16.70;65.30;;;;;;4909222;29;20058;-91
2023/07/25 09:00:01;;;;;;;256.42;241.55;;;16.80;65.30;;;;;;4898502;29;20462;-90
2023/07/25 09:02:28;;;;;;;424.00;397.10;;;16.70;64.70;;;;;;4930803;29;20039;-88
2023/07/25 09:04:59;;;;;;;442.20;414.67;;;16.50;64.30;;;;;;4916331;29;20083;-90
2023/07/25 09:07:25;;;;;;;231.45;217.43;;;16.40;64.70;;;;;;4888405;29;20051;-87
2023/07/25 09:09:51;;;;;;;291.00;272.05;;;16.40;64.80;;;;;;4908152;29;20518;-88
2023/07/25 09:12:20;;;;;;;277.30;260.33;;;16.30;65.00;;;;;;4904539;29;20090;-89
2023/07/25 09:14:46;;;;;;;447.50;418.83;;;16.30;65.70;;;;;;4902667;29;20525;-89
2023/07/25 09:17:12;;;;;;;440.58;412.38;;;16.40;66.10;;;;;;4899419;29;20040;-88
2023/07/25 09:19:38;;;;;;;421.23;394.35;;;16.30;66.40;;;;;;4902263;29;20054;-91
2023/07/25 09:22:04;;;;;;;462.27;432.90;;;16.20;66.60;;;;;;4914069;29;20051;-88
2023/07/25 09:24:38;;;;;;;422.02;395.00;;;16.20;66.80;;;;;;4913597;29;20062;-88
2023/07/25 09:27:17;;;;;;;274.15;257.70;;;16.30;67.00;;;;;;4907366;29;20117;-89
2023/07/25 09:29:43;;;;;;;271.65;255.25;;;16.40;67.30;;;;;;4914595;29;20134;-89
2023/07/25 09:32:28;;;;;;;261.55;245.70;;;16.60;67.40;;;;;;4925691;29;20072;-90
2023/07/25 09:35:02;;;;;;;402.08;376.77;;;16.80;67.10;;;;;;4897011;29;20125;-90
2023/07/25 09:37:31;;;;;;;274.42;257.92;;;16.90;66.60;;;;;;4896463;29;20082;-90
2023/07/25 09:40:12;;;;;;;423.38;396.55;;;16.90;66.20;;;;;;4879639;29;20595;-92
2023/07/25 09:42:54;;;;;;;;;;;;;;;;;;;;;
2023/07/25 09:45:48;;;;;;;437.38;409.88;;;16.90;66.40;;;;;;4905966;29;20052;-91
2023/07/25 09:48:15;;;;;;;279.95;262.83;;;16.90;66.50;;;;;;4922950;29;20051;-88
2023/07/25 09:50:47;;;;;;;414.30;387.20;;;16.90;66.10;;;;;;4932829;29;20396;-90
2023/07/25 09:53:29;;;;;;;296.35;278.20;;;16.80;66.30;;;;;;4909334;29;20047;-89
2023/07/25 09:55:56;;;;;;;293.80;275.75;;;16.80;66.20;;;;;;4900767;29;20058;-88
2023/07/25 09:58:22;;;;;;;372.35;348.73;;;16.80;66.10;;;;;;4938952;28;20046;-90
2023/07/25 10:00:50;;;;;;;417.67;391.75;;;16.80;65.90;;;;;;4908705;29;20392;-89
2023/07/25 10:03:21;;;;;;;266.40;250.27;;;16.70;65.50;;;;;;4905007;28;20054;-91
2023/07/25 10:05:49;;;;;;;408.83;383.05;;;16.70;65.50;;;;;;4926627;29;20071;-91
2023/07/25 10:08:44;;;;;;;265.92;249.85;;;16.50;65.30;;;;;;4901865;28;20086;-91
2023/07/25 10:11:21;;;;;;;243.55;229.25;;;16.50;65.00;;;;;;4922647;29;20102;-92
2023/07/25 10:14:02;;;;;;;398.83;374.42;;;16.60;65.30;;;;;;4913065;28;20047;-92
2023/07/25 10:16:28;;;;;;;242.15;227.70;;;16.80;65.20;;;;;;4895643;29;20450;-90
2023/07/25 10:19:01;;;;;;;398.85;374.60;;;16.90;64.80;;;;;;4924435;29;20062;-92
2023/07/25 10:21:48;;;;;;;245.52;230.60;;;17.00;64.50;;;;;;4917882;29;20102;-91
2023/07/25 10:24:15;;;;;;;267.42;251.65;;;17.20;64.10;;;;;;4927329;29;20047;-92
2023/07/25 10:27:11;;;;;;;262.58;246.80;;;17.20;64.90;;;;;;4923195;29;20039;-90
2023/07/25 10:29:46;;;;;;;245.63;231.18;;;17.40;63.20;;;;;;4919361;29;20052;-89
2023/07/25 10:32:17;;;;;;;426.23;399.75;;;17.20;64.20;;;;;;4929492;29;20044;-91
2023/07/25 10:35:00;;;;;;;281.35;264.80;;;17.10;64.50;;;;;;4934042;29;20099;-90
2023/07/25 10:37:30;;;;;;;418.50;392.15;;;17.10;64.90;;;;;;4907608;29;20039;-89
2023/07/25 10:40:49;;;;;;;423.08;396.63;;;17.20;64.90;;;;;;4945845;28;20063;-89
2023/07/25 10:43:14;;;;;;;408.23;383.02;;;17.30;63.90;;;;;;4924654;28;20051;-90
2023/07/25 10:45:49;;;;;;;316.27;294.10;;;17.20;64.20;;;;;;4915869;29;20051;-89
2023/07/25 10:48:42;;;;;;;229.90;216.07;;;17.20;63.00;;;;;;4924801;29;20047;-90
2023/07/25 10:51:08;;;;;;;249.85;234.95;;;17.10;64.20;;;;;;4930353;28;20039;-88
2023/07/25 10:53:34;;;;;;;437.73;409.63;;;17.20;64.20;;;;;;4932365;28;20058;-90
2023/07/25 10:56:03;;;;;;;241.85;227.77;;;17.20;64.20;;;;;;4917944;29;20051;-89
2023/07/25 10:58:37;;;;;;;251.60;236.88;;;17.40;64.20;;;;;;4919079;29;20047;-90
2023/07/25 11:01:04;;;;;;;397.02;371.73;;;17.50;63.90;;;;;;4900480;29;20047;-90
2023/07/25 11:03:31;;;;;;;424.20;397.15;;;17.50;63.40;;;;;;4924277;28;20433;-88
2023/07/25 11:06:06;;;;;;;260.85;246.00;;;17.50;62.30;;;;;;4926014;29;20720;-88
2023/07/25 11:08:59;;;;;;;447.88;419.15;;;17.50;62.80;;;;;;4927185;29;20043;-92
2023/07/25 11:11:30;;;;;;;389.73;365.00;;;17.60;62.80;;;;;;4913145;29;20138;-90
2023/07/25 11:13:57;;;;;;;247.23;233.15;;;17.50;63.30;;;;;;4922502;28;20698;-90
2023/07/25 11:16:27;;;;;;;237.55;223.57;;;17.50;63.40;;;;;;4911725;29;20036;-91
2023/07/25 11:18:52;;;;;;;408.58;380.98;;;17.50;63.50;;;;;;4912794;29;20062;-88
2023/07/25 11:21:19;;;;;;;340.60;318.50;;;17.50;63.70;;;;;;4916057;29;20441;-89
2023/07/25 11:23:45;;;;;;;209.82;198.00;;;17.40;63.40;;;;;;4937023;28;20480;-89
2023/07/25 11:26:12;;;;;;;213.15;201.43;;;17.40;63.40;;;;;;4919019;28;20158;-88
2023/07/25 11:28:38;;;;;;;345.75;323.45;;;17.40;63.40;;;;;;4926103;28;20055;-90
2023/07/25 11:31:08;;;;;;;350.02;327.15;;;17.30;63.10;;;;;;4930614;29;20051;-92
2023/07/25 11:33:39;;;;;;;407.55;376.75;;;17.20;62.90;;;;;;4915126;29;20146;-91
2023/07/25 11:36:23;;;;;;;226.60;214.00;;;17.20;60.90;;;;;;4916421;29;20051;-92
2023/07/25 11:39:22;;;;;;;355.90;332.75;;;17.10;62.50;;;;;;4907838;29;20649;-91
2023/07/25 11:41:48;;;;;;;319.98;299.38;;;17.20;62.70;;;;;;4909479;29;20050;-92
2023/07/25 11:44:19;;;;;;;241.98;226.68;;;17.20;62.70;;;;;;4932541;28;20056;-90
2023/07/25 11:46:50;;;;;;;218.25;205.80;;;17.10;63.20;;;;;;4918796;29;20055;-91
2023/07/25 11:49:17;;;;;;;214.07;201.88;;;17.20;63.10;;;;;;4916932;29;20047;-91
2023/07/25 11:51:44;;;;;;;382.42;355.92;;;17.20;63.30;;;;;;4935216;28;20249;-90
2023/07/25 11:54:13;;;;;;;198.80;187.60;;;17.20;63.40;;;;;;4941814;29;20130;-90
2023/07/25 11:56:39;;;;;;;452.55;419.02;;;17.30;63.50;;;;;;4924387;29;20062;-87
2023/07/25 11:59:10;;;;;;;217.38;205.25;;;17.40;63.60;;;;;;4907523;28;20050;-89
2023/07/25 12:01:36;;;;;;;221.38;209.00;;;17.40;63.60;;;;;;4943124;28;20138;-90
2023/07/25 12:04:17;;;;;;;199.23;188.15;;;17.40;63.40;;;;;;4939198;28;20048;-90
2023/07/25 12:06:43;;;;;;;;;;;17.40;63.30;;;;;;4924132;29;20365;-91
2023/07/25 12:09:09;;;;;;;179.70;169.93;;;17.50;61.60;;;;;;4933926;28;20474;-88
2023/07/25 12:11:43;;;;;;;542.88;500.98;;;17.50;63.40;;;;;;4932514;29;20536;-89
2023/07/25 12:14:11;;;;;;;270.00;253.15;;;17.50;62.00;;;;;;4937887;28;20741;-89
2023/07/25 12:16:44;;;;;;;351.70;327.75;;;17.60;62.60;;;;;;4928510;29;20082;-92
2023/07/25 12:19:14;;;;;;;231.18;217.82;;;17.60;62.10;;;;;;4934770;29;20043;-88
2023/07/25 12:21:46;;;;;;;390.02;362.13;;;17.50;61.40;;;;;;4944786;28;20039;-88
2023/07/25 12:24:16;;;;;;;423.15;391.85;;;17.50;61.90;;;;;;4952829;28;20054;-91
2023/07/25 12:26:46;;;;;;;643.00;589.83;;;17.50;62.20;;;;;;4945997;28;20062;-88
2023/07/25 12:29:14;;;;;;;216.45;204.27;;;17.50;62.50;;;;;;4938441;29;20048;-88
2023/07/25 12:31:42;;;;;;;233.35;220.65;;;17.40;63.40;;;;;;4948498;29;20040;-90
2023/07/25 12:34:09;;;;;;;257.15;242.73;;;17.40;64.10;;;;;;4925921;29;20485;-88
2023/07/25 12:36:37;;;;;;;302.00;281.30;;;17.50;64.60;;;;;;4947368;28;20056;-92
2023/07/25 12:39:07;;;;;;;415.48;384.77;;;17.50;64.70;;;;;;4944282;29;20083;-92
2023/07/25 12:41:35;;;;;;;409.75;380.08;;;17.60;64.10;;;;;;4928472;29;20063;-90
2023/07/25 12:44:01;;;;;;;223.88;211.30;;;17.80;63.80;;;;;;4930521;29;20131;-90
2023/07/25 12:46:27;;;;;;;439.83;407.60;;;17.90;63.60;;;;;;4925182;29;20107;-90
2023/07/25 12:48:53;;;;;;;261.23;246.20;;;18.00;63.20;;;;;;4925816;28;20059;-93
2023/07/25 12:51:19;;;;;;;233.05;219.90;;;18.00;62.60;;;;;;4937342;28;20046;-88